createdAt,value
2023-07-06T00:02:26.224Z,1.42
2023-07-06T00:04:53.439Z,1.67
2023-07-06T00:07:22.563Z,1.95
2023-07-06T00:09:50.686Z,1.90
2023-07-06T00:12:20.213Z,1.80
2023-07-06T00:14:46.783Z,1.95
2023-07-06T00:17:15.538Z,1.60
2023-07-06T00:19:43.116Z,2.03
2023-07-06T00:22:12.116Z,2.63
2023-07-06T00:24:39.936Z,2.30
2023-07-06T00:27:06.730Z,2.38
2023-07-06T00:29:36.936Z,1.90
2023-07-06T00:32:28.067Z,2.45
2023-07-06T00:35:00.131Z,2.35
2023-07-06T00:37:27.787Z,2.40
2023-07-06T00:39:55.488Z,2.17
2023-07-06T00:42:24.000Z,2.42
2023-07-06T00:44:59.029Z,2.42
2023-07-06T00:47:38.262Z,2.15
2023-07-06T00:50:09.934Z,2.53
2023-07-06T00:52:41.062Z,2.70
2023-07-06T00:55:09.747Z,2.55
2023-07-06T00:57:39.953Z,2.22
2023-07-06T01:00:08.830Z,2.05
2023-07-06T01:02:40.166Z,2.20
2023-07-06T01:05:09.570Z,2.20
2023-07-06T01:07:39.123Z,2.13
2023-07-06T01:10:06.813Z,2.28
2023-07-06T01:12:34.321Z,2.97
2023-07-06T01:15:01.517Z,2.20
2023-07-06T01:17:40.471Z,2.33
2023-07-06T01:20:23.465Z,2.30
2023-07-06T01:23:08.544Z,2.13
2023-07-06T01:25:47.187Z,2.50
2023-07-06T01:28:38.997Z,2.30
2023-07-06T01:31:29.668Z,2.47
2023-07-06T01:34:25.810Z,2.35
2023-07-06T01:37:04.237Z,2.30
2023-07-06T01:39:30.743Z,2.35
2023-07-06T01:42:15.888Z,3.03
2023-07-06T01:44:48.297Z,2.90
2023-07-06T01:47:17.338Z,3.10
2023-07-06T01:49:44.522Z,2.50
2023-07-06T01:52:37.760Z,2.67
2023-07-06T01:55:22.219Z,2.60
2023-07-06T01:58:02.342Z,2.92
2023-07-06T02:00:32.015Z,2.70
2023-07-06T02:03:01.008Z,2.83
2023-07-06T02:05:29.007Z,3.13
2023-07-06T02:07:56.351Z,2.97
2023-07-06T02:10:23.605Z,3.10
2023-07-06T02:12:50.660Z,2.90
2023-07-06T02:15:20.906Z,3.15
2023-07-06T02:17:48.823Z,2.70
2023-07-06T02:20:17.711Z,2.67
2023-07-06T02:22:45.486Z,2.85
2023-07-06T02:25:13.008Z,3.33
2023-07-06T02:27:39.819Z,2.63
2023-07-06T02:30:07.146Z,3.80
2023-07-06T02:32:35.211Z,2.40
2023-07-06T02:35:03.831Z,2.40
2023-07-06T02:37:31.515Z,2.65
2023-07-06T02:40:00.037Z,2.63
2023-07-06T02:42:27.363Z,2.40
2023-07-06T02:44:55.143Z,2.90
2023-07-06T02:47:23.320Z,3.25
2023-07-06T02:49:49.996Z,2.83
2023-07-06T02:52:16.848Z,2.53
2023-07-06T02:54:43.737Z,2.40
2023-07-06T02:57:10.265Z,2.63
2023-07-06T02:59:36.877Z,3.03
2023-07-06T03:02:04.829Z,2.85
2023-07-06T03:04:33.162Z,3.20
2023-07-06T03:07:00.167Z,2.85
2023-07-06T03:09:30.784Z,2.83
2023-07-06T03:11:57.746Z,2.80
2023-07-06T03:14:25.925Z,3.08
2023-07-06T03:16:55.924Z,2.58
2023-07-06T03:19:22.805Z,2.53
2023-07-06T03:21:49.574Z,2.40
2023-07-06T03:24:16.504Z,2.20
2023-07-06T03:26:44.965Z,2.67
2023-07-06T03:29:14.863Z,3.05
2023-07-06T03:31:42.331Z,2.95
2023-07-06T03:34:08.990Z,2.50
2023-07-06T03:36:36.590Z,2.53
2023-07-06T03:39:03.647Z,2.50
2023-07-06T03:41:30.321Z,2.67
2023-07-06T03:44:00.534Z,2.80
2023-07-06T03:46:35.869Z,2.63
2023-07-06T03:49:04.741Z,2.90
2023-07-06T03:51:32.914Z,2.70
2023-07-06T03:54:00.370Z,2.67
2023-07-06T03:56:29.760Z,2.78
2023-07-06T03:58:57.896Z,2.53
2023-07-06T04:01:28.780Z,2.92
2023-07-06T04:03:57.725Z,2.90
2023-07-06T04:06:30.012Z,2.75
2023-07-06T04:09:00.750Z,2.78
2023-07-06T04:11:27.530Z,3.07
2023-07-06T04:14:00.370Z,2.65
2023-07-06T04:16:28.451Z,3.50
2023-07-06T04:18:55.221Z,2.88
2023-07-06T04:21:23.440Z,2.80
2023-07-06T04:23:50.548Z,3.07
2023-07-06T04:26:19.235Z,2.80
2023-07-06T04:28:46.303Z,3.10
2023-07-06T04:31:16.028Z,2.55
2023-07-06T04:33:44.857Z,2.70
2023-07-06T04:36:11.591Z,2.37
2023-07-06T04:38:38.669Z,2.70
2023-07-06T04:41:06.211Z,2.30
2023-07-06T04:43:32.896Z,3.13
2023-07-06T04:45:59.741Z,2.58
2023-07-06T04:48:27.689Z,3.10
2023-07-06T04:50:55.597Z,3.03
2023-07-06T04:53:23.335Z,2.83
2023-07-06T04:55:52.082Z,2.40
2023-07-06T04:58:19.688Z,2.80
2023-07-06T05:00:47.269Z,3.20
2023-07-06T05:03:14.671Z,2.40
2023-07-06T05:05:47.099Z,3.35
2023-07-06T05:08:17.066Z,2.40
2023-07-06T05:10:52.029Z,2.88
2023-07-06T05:13:21.723Z,3.10
2023-07-06T05:15:50.088Z,2.80
2023-07-06T05:18:21.694Z,2.70
2023-07-06T05:20:51.280Z,2.63
2023-07-06T05:23:19.646Z,2.75
2023-07-06T05:25:46.443Z,2.43
2023-07-06T05:28:12.988Z,2.35
2023-07-06T05:30:40.794Z,2.80
2023-07-06T05:33:07.632Z,2.70
2023-07-06T05:35:34.191Z,3.60
2023-07-06T05:38:01.464Z,3.27
2023-07-06T05:40:28.565Z,3.42
2023-07-06T05:42:56.122Z,3.30
2023-07-06T05:45:22.784Z,3.20
2023-07-06T05:47:49.549Z,3.00
2023-07-06T05:50:16.144Z,3.57
2023-07-06T05:52:42.869Z,3.28
2023-07-06T05:55:10.490Z,3.47
2023-07-06T05:57:37.301Z,3.65
2023-07-06T06:00:11.057Z,3.20
2023-07-06T06:02:39.152Z,3.27
2023-07-06T06:05:06.896Z,3.83
2023-07-06T06:07:34.636Z,3.47
2023-07-06T06:10:04.307Z,3.80
2023-07-06T06:12:32.864Z,3.88
2023-07-06T06:14:59.990Z,3.97
2023-07-06T06:17:29.554Z,4.05
2023-07-06T06:19:56.340Z,3.92
2023-07-06T06:22:23.726Z,3.60
2023-07-06T06:24:50.443Z,4.50
2023-07-06T06:27:18.873Z,3.83
2023-07-06T06:29:45.497Z,4.00
2023-07-06T06:32:13.173Z,4.43
2023-07-06T06:34:41.194Z,4.47
2023-07-06T06:37:09.362Z,4.32
2023-07-06T06:39:36.304Z,4.07
2023-07-06T06:42:04.060Z,4.85
2023-07-06T06:44:31.958Z,4.50
2023-07-06T06:47:03.448Z,5.03
2023-07-06T06:49:34.435Z,5.60
2023-07-06T06:52:05.521Z,5.23
2023-07-06T06:54:33.187Z,6.05
2023-07-06T06:56:59.986Z,5.28
2023-07-06T06:59:26.963Z,4.60
2023-07-06T07:01:55.813Z,5.20
2023-07-06T07:04:23.472Z,5.37
2023-07-06T07:06:50.110Z,5.60
2023-07-06T07:09:19.247Z,5.85
2023-07-06T07:11:46.315Z,5.93
2023-07-06T07:14:15.410Z,5.10
2023-07-06T07:16:42.261Z,5.33
2023-07-06T07:19:09.848Z,5.95
2023-07-06T07:21:37.287Z,5.70
2023-07-06T07:24:04.319Z,6.50
2023-07-06T07:26:31.125Z,6.28
2023-07-06T07:28:58.295Z,5.60
2023-07-06T07:31:26.788Z,6.68
2023-07-06T07:33:54.147Z,5.72
2023-07-06T07:36:21.697Z,6.53
2023-07-06T07:38:50.254Z,5.53
2023-07-06T07:41:20.787Z,6.23
2023-07-06T07:43:50.346Z,5.07
2023-07-06T07:46:19.788Z,4.93
2023-07-06T07:48:48.401Z,5.10
2023-07-06T07:51:18.470Z,4.57
2023-07-06T07:53:45.855Z,5.20
2023-07-06T07:56:16.779Z,5.00
2023-07-06T07:58:46.622Z,4.25
2023-07-06T08:01:14.645Z,3.85
2023-07-06T08:03:41.621Z,4.40
2023-07-06T08:06:10.384Z,3.53
2023-07-06T08:08:39.332Z,4.50
2023-07-06T08:11:08.578Z,3.88
2023-07-06T08:13:36.217Z,3.90
2023-07-06T08:16:04.993Z,3.97
2023-07-06T08:18:32.240Z,3.77
2023-07-06T08:21:36.880Z,3.20
2023-07-06T08:23:49.397Z,3.22
2023-07-06T08:26:16.620Z,2.97
2023-07-06T08:28:43.544Z,2.80
2023-07-06T08:31:20.991Z,2.90
2023-07-06T08:33:49.190Z,2.88
2023-07-06T08:36:17.408Z,3.00
2023-07-06T08:38:44.989Z,2.92
2023-07-06T08:41:32.612Z,2.88
2023-07-06T08:44:01.079Z,2.80
2023-07-06T08:46:33.437Z,3.05
2023-07-06T08:49:01.720Z,3.20
2023-07-06T08:51:35.836Z,2.88
2023-07-06T08:54:11.366Z,2.47
2023-07-06T08:56:37.968Z,2.77
2023-07-06T08:59:14.304Z,2.80
2023-07-06T09:01:43.258Z,2.78
2023-07-06T09:04:20.240Z,3.13
2023-07-06T09:06:55.024Z,3.30
2023-07-06T09:09:22.170Z,2.80
2023-07-06T09:11:51.881Z,3.33
2023-07-06T09:14:21.219Z,3.10
2023-07-06T09:16:58.584Z,3.13
2023-07-06T09:19:26.683Z,3.30
2023-07-06T09:21:59.522Z,2.67
2023-07-06T09:24:28.785Z,2.50
2023-07-06T09:27:00.208Z,3.13
2023-07-06T09:29:33.655Z,2.67
2023-07-06T09:32:14.163Z,2.78
2023-07-06T09:34:48.021Z,2.37
2023-07-06T09:37:16.184Z,2.13
2023-07-06T09:39:42.988Z,2.60
2023-07-06T09:42:16.613Z,3.25
2023-07-06T09:44:43.234Z,2.00
2023-07-06T09:47:14.415Z,2.00
2023-07-06T09:49:56.448Z,2.70
2023-07-06T09:52:23.989Z,3.03
2023-07-06T09:55:15.163Z,3.05
2023-07-06T09:57:41.763Z,3.00
2023-07-06T10:00:18.502Z,2.93
2023-07-06T10:03:01.189Z,2.45
2023-07-06T10:05:53.671Z,2.22
2023-07-06T10:08:25.911Z,2.60
2023-07-06T10:11:17.805Z,2.88
2023-07-06T10:14:06.497Z,2.10
2023-07-06T10:16:48.916Z,3.28
2023-07-06T10:19:21.611Z,2.30
2023-07-06T10:22:22.410Z,2.67
2023-07-06T10:24:54.846Z,2.58
2023-07-06T10:27:27.673Z,2.37
2023-07-06T10:29:59.736Z,2.47
2023-07-06T10:32:34.185Z,2.90
2023-07-06T10:35:32.429Z,2.30
2023-07-06T10:38:02.189Z,2.50
2023-07-06T10:40:30.346Z,2.20
2023-07-06T10:43:14.278Z,1.88
2023-07-06T10:45:47.261Z,2.55
2023-07-06T10:48:22.995Z,2.47
2023-07-06T10:51:05.411Z,2.22
2023-07-06T10:53:43.721Z,1.70
2023-07-06T10:56:13.290Z,2.22
2023-07-06T10:58:58.405Z,2.30
2023-07-06T11:01:33.580Z,2.25
2023-07-06T11:04:02.503Z,1.90
2023-07-06T11:06:55.439Z,1.67
2023-07-06T11:09:22.541Z,1.83
2023-07-06T11:11:49.186Z,1.73
2023-07-06T11:14:32.212Z,2.22
2023-07-06T11:17:03.967Z,1.67
2023-07-06T11:19:35.708Z,1.97
2023-07-06T11:22:07.021Z,1.95
2023-07-06T11:24:46.006Z,2.13
2023-07-06T11:27:26.497Z,1.83
2023-07-06T11:29:55.571Z,1.80
2023-07-06T11:32:33.767Z,1.90
2023-07-06T11:35:25.306Z,1.60
2023-07-06T11:38:20.695Z,1.80
2023-07-06T11:41:18.145Z,1.70
2023-07-06T11:44:03.301Z,1.48
2023-07-06T11:49:49.238Z,1.00
2023-07-06T11:52:26.048Z,1.13
2023-07-06T11:55:19.917Z,0.70
2023-07-06T11:58:30.081Z,0.47
2023-07-06T12:01:11.632Z,0.40
2023-07-06T12:03:39.025Z,0.50
2023-07-06T12:06:05.712Z,0.40
2023-07-06T12:08:38.966Z,0.80
2023-07-06T12:11:10.851Z,0.60
2023-07-06T12:13:42.446Z,0.60
2023-07-06T12:16:20.475Z,0.65
2023-07-06T12:18:56.958Z,0.63
2023-07-06T12:21:54.098Z,0.50
2023-07-06T12:24:24.319Z,0.80
2023-07-06T12:26:57.206Z,0.80
2023-07-06T12:29:28.473Z,0.60
2023-07-06T12:32:02.136Z,0.65
2023-07-06T12:34:34.076Z,1.08
2023-07-06T12:37:03.871Z,0.95
2023-07-06T12:39:39.689Z,0.80
2023-07-06T12:42:08.120Z,0.60
2023-07-06T12:44:35.161Z,0.60
2023-07-06T12:47:19.351Z,0.60
2023-07-06T12:49:48.453Z,0.60
2023-07-06T12:52:15.054Z,0.30
2023-07-06T12:54:50.312Z,0.52
2023-07-06T12:57:26.588Z,0.50
2023-07-06T12:59:58.086Z,0.57
2023-07-06T13:02:31.390Z,0.57
2023-07-06T13:04:58.807Z,0.50
2023-07-06T13:07:29.510Z,0.40
2023-07-06T13:09:56.476Z,0.50
2023-07-06T13:12:25.995Z,0.50
2023-07-06T13:14:53.556Z,0.68
2023-07-06T13:17:27.141Z,0.40
2023-07-06T13:19:55.590Z,0.50
2023-07-06T13:22:22.729Z,0.50
2023-07-06T13:24:49.451Z,0.45
2023-07-06T13:27:18.239Z,0.47
2023-07-06T13:29:46.485Z,0.53
2023-07-06T13:32:19.154Z,0.60
2023-07-06T13:34:48.115Z,0.50
2023-07-06T13:37:25.995Z,0.60
2023-07-06T13:39:53.033Z,0.45
2023-07-06T13:42:22.823Z,0.40
2023-07-06T13:44:50.597Z,0.50
2023-07-06T13:47:20.122Z,0.50
2023-07-06T13:49:51.859Z,0.40
2023-07-06T13:52:21.182Z,0.57
2023-07-06T13:54:47.903Z,0.50
2023-07-06T13:57:14.531Z,0.40
2023-07-06T13:59:41.325Z,0.50
2023-07-06T14:02:14.768Z,0.50
2023-07-06T14:04:43.674Z,0.55
2023-07-06T14:07:11.338Z,0.33
2023-07-06T14:09:38.158Z,0.40
2023-07-06T14:12:06.497Z,0.50
2023-07-06T14:14:33.274Z,0.30
2023-07-06T14:16:59.963Z,0.47
2023-07-06T14:19:26.568Z,0.50
2023-07-06T14:21:53.452Z,0.50
2023-07-06T14:24:22.922Z,0.40
2023-07-06T14:26:49.794Z,0.40
2023-07-06T14:29:17.424Z,0.30
2023-07-06T14:31:48.878Z,0.37
2023-07-06T14:34:17.129Z,0.43
2023-07-06T14:36:43.622Z,0.40
2023-07-06T14:39:10.515Z,0.30
2023-07-06T14:41:37.241Z,0.40
2023-07-06T14:44:04.116Z,0.50
2023-07-06T14:46:31.309Z,0.38
2023-07-06T14:48:57.872Z,0.60
2023-07-06T14:51:24.436Z,0.50
2023-07-06T14:53:52.723Z,0.50
2023-07-06T14:56:22.618Z,0.50
2023-07-06T14:58:50.248Z,0.60
2023-07-06T15:01:16.898Z,0.50
2023-07-06T15:03:43.702Z,0.47
2023-07-06T15:06:12.065Z,0.47
2023-07-06T15:08:38.860Z,0.53
2023-07-06T15:11:05.444Z,0.30
2023-07-06T15:13:32.222Z,0.50
2023-07-06T15:15:59.288Z,0.40
2023-07-06T15:18:26.613Z,0.50
2023-07-06T15:21:10.517Z,0.40
2023-07-06T15:23:38.769Z,0.30
2023-07-06T15:26:05.825Z,0.40
2023-07-06T15:28:32.663Z,0.77
2023-07-06T15:30:59.406Z,0.55
2023-07-06T15:33:26.083Z,0.60
2023-07-06T15:35:52.703Z,0.50
2023-07-06T15:38:19.245Z,0.40
2023-07-06T15:40:47.966Z,0.50
2023-07-06T15:43:16.179Z,0.50
2023-07-06T15:45:44.700Z,0.50
2023-07-06T15:48:11.439Z,0.47
2023-07-06T15:50:39.534Z,0.60
2023-07-06T15:53:08.422Z,0.70
2023-07-06T15:55:36.354Z,0.50
2023-07-06T15:58:03.518Z,0.50
2023-07-06T16:00:30.120Z,0.50
2023-07-06T16:02:57.564Z,0.50
2023-07-06T16:05:24.967Z,0.40
2023-07-06T16:07:51.870Z,0.65
2023-07-06T16:10:18.818Z,0.50
2023-07-06T16:12:45.855Z,0.80
2023-07-06T16:15:12.953Z,0.50
2023-07-06T16:17:40.341Z,0.70
2023-07-06T16:20:08.081Z,0.57
2023-07-06T16:22:35.353Z,0.60
2023-07-06T16:25:02.127Z,0.40
2023-07-06T16:27:28.775Z,0.57
2023-07-06T16:29:55.379Z,0.65
2023-07-06T16:32:22.137Z,0.50
2023-07-06T16:34:48.755Z,0.47
2023-07-06T16:37:18.255Z,0.60
2023-07-06T16:39:44.882Z,0.40
2023-07-06T16:42:11.772Z,0.45
2023-07-06T16:44:38.493Z,0.60
2023-07-06T16:47:05.358Z,0.37
2023-07-06T16:49:32.453Z,0.50
2023-07-06T16:51:59.211Z,0.50
2023-07-06T16:54:25.922Z,0.50
2023-07-06T16:56:52.779Z,0.60
2023-07-06T16:59:19.547Z,0.60
2023-07-06T17:01:49.276Z,0.90
2023-07-06T17:04:16.179Z,0.50
2023-07-06T17:06:42.790Z,0.55
2023-07-06T17:09:09.373Z,0.40
2023-07-06T17:11:36.053Z,0.50
2023-07-06T17:14:02.887Z,0.60
2023-07-06T17:16:29.948Z,0.80
2023-07-06T17:18:56.445Z,0.50
2023-07-06T17:21:23.071Z,0.40
2023-07-06T17:23:49.672Z,0.80
2023-07-06T17:26:16.119Z,0.50
2023-07-06T17:28:42.635Z,0.50
2023-07-06T17:31:15.025Z,0.70
2023-07-06T17:33:41.803Z,1.20
2023-07-06T17:36:09.672Z,0.50
2023-07-06T17:38:37.264Z,0.40
2023-07-06T17:41:06.857Z,0.68
2023-07-06T17:43:34.471Z,0.52
2023-07-06T17:46:01.870Z,0.70
2023-07-06T17:48:29.431Z,0.50
2023-07-06T17:51:00.387Z,0.60
2023-07-06T17:53:27.084Z,0.60
2023-07-06T17:55:53.584Z,0.60
2023-07-06T17:58:21.826Z,0.50
2023-07-06T18:00:51.433Z,0.50
2023-07-06T18:03:19.019Z,1.05
2023-07-06T18:05:47.282Z,0.85
2023-07-06T18:08:14.283Z,0.57
2023-07-06T18:10:40.993Z,0.70
2023-07-06T18:13:08.667Z,0.50
2023-07-06T18:15:35.924Z,0.70
2023-07-06T18:18:03.822Z,0.70
2023-07-06T18:20:30.647Z,0.40
2023-07-06T18:22:57.229Z,0.90
2023-07-06T18:25:24.307Z,0.77
2023-07-06T18:27:51.207Z,0.70
2023-07-06T18:30:17.884Z,0.68
2023-07-06T18:32:44.650Z,0.65
2023-07-06T18:35:11.418Z,0.63
2023-07-06T18:37:38.150Z,0.80
2023-07-06T18:40:05.184Z,0.60
2023-07-06T18:42:31.851Z,0.70
2023-07-06T18:45:05.151Z,0.55
2023-07-06T18:47:31.703Z,0.50
2023-07-06T18:49:58.371Z,0.53
2023-07-06T18:52:26.676Z,0.43
2023-07-06T18:54:53.720Z,0.75
2023-07-06T18:57:23.340Z,0.45
2023-07-06T18:59:50.588Z,0.47
2023-07-06T19:02:17.676Z,0.77
2023-07-06T19:04:45.134Z,0.47
2023-07-06T19:07:13.205Z,0.60
2023-07-06T19:09:40.510Z,1.05
2023-07-06T19:12:08.478Z,0.98
2023-07-06T19:14:35.250Z,0.60
2023-07-06T19:17:01.986Z,0.82
2023-07-06T19:19:28.994Z,0.70
2023-07-06T19:21:56.126Z,0.85
2023-07-06T19:24:23.038Z,0.75
2023-07-06T19:26:49.893Z,0.60
2023-07-06T19:29:21.083Z,0.90
2023-07-06T19:31:50.441Z,0.63
2023-07-06T19:34:20.406Z,0.65
2023-07-06T19:36:46.930Z,0.90
2023-07-06T19:39:13.828Z,1.03
2023-07-06T19:41:40.598Z,0.70
2023-07-06T19:44:07.175Z,0.80
2023-07-06T19:46:33.894Z,1.00
2023-07-06T19:49:00.624Z,0.80
2023-07-06T19:51:27.095Z,0.70
2023-07-06T19:53:53.639Z,0.93
2023-07-06T19:56:22.408Z,1.02
2023-07-06T19:58:49.280Z,1.30
2023-07-06T20:01:20.204Z,1.17
2023-07-06T20:03:46.910Z,0.97
2023-07-06T20:06:14.110Z,1.02
2023-07-06T20:08:40.617Z,1.00
2023-07-06T20:11:07.168Z,1.17
2023-07-06T20:13:35.857Z,1.08
2023-07-06T20:16:04.588Z,0.93
2023-07-06T20:18:31.198Z,0.98
2023-07-06T20:20:57.910Z,1.00
2023-07-06T20:23:24.806Z,0.98
2023-07-06T20:25:51.412Z,0.88
2023-07-06T20:28:18.160Z,0.90
2023-07-06T20:30:46.602Z,0.90
2023-07-06T20:33:13.166Z,0.80
2023-07-06T20:35:43.052Z,0.90
2023-07-06T20:38:10.001Z,1.10
2023-07-06T20:40:36.939Z,1.20
2023-07-06T20:43:04.352Z,1.13
2023-07-06T20:45:32.505Z,0.80
2023-07-06T20:48:01.251Z,1.00
2023-07-06T20:50:28.004Z,0.63
2023-07-06T20:52:54.407Z,1.00
2023-07-06T20:55:20.860Z,0.85
2023-07-06T20:57:48.531Z,0.85
2023-07-06T21:00:15.069Z,0.82
2023-07-06T21:02:41.618Z,1.00
2023-07-06T21:05:08.377Z,0.87
2023-07-06T21:07:35.056Z,1.13
2023-07-06T21:10:01.733Z,0.90
2023-07-06T21:12:28.185Z,0.77
2023-07-06T21:14:54.621Z,1.00
2023-07-06T21:17:21.294Z,1.10
2023-07-06T21:19:47.768Z,1.02
2023-07-06T21:22:14.269Z,0.82
2023-07-06T21:24:41.006Z,0.90
2023-07-06T21:27:07.845Z,1.10
2023-07-06T21:29:34.280Z,1.10
2023-07-06T21:32:01.027Z,1.30
2023-07-06T21:34:27.502Z,1.38
2023-07-06T21:36:54.003Z,1.00
2023-07-06T21:39:24.697Z,1.50
2023-07-06T21:41:51.965Z,1.10
2023-07-06T21:44:18.680Z,1.38
2023-07-06T21:46:45.346Z,1.33
2023-07-06T21:49:11.953Z,1.38
2023-07-06T21:51:38.486Z,1.35
2023-07-06T21:54:04.965Z,1.30
2023-07-06T21:56:31.726Z,1.50
2023-07-06T21:58:58.472Z,1.35
2023-07-06T22:01:25.424Z,1.15
2023-07-06T22:03:52.236Z,1.30
2023-07-06T22:06:21.308Z,1.23
2023-07-06T22:08:49.278Z,1.20
2023-07-06T22:11:20.036Z,1.50
2023-07-06T22:13:48.398Z,1.40
2023-07-06T22:16:15.479Z,1.67
2023-07-06T22:18:42.859Z,1.17
2023-07-06T22:21:09.901Z,1.08
2023-07-06T22:23:37.563Z,1.50
2023-07-06T22:26:06.903Z,1.45
2023-07-06T22:28:34.194Z,1.27
2023-07-06T22:31:03.521Z,1.47
2023-07-06T22:33:35.719Z,1.48
2023-07-06T22:36:02.894Z,1.40
2023-07-06T22:38:29.425Z,1.50
2023-07-06T22:40:55.913Z,1.27
2023-07-06T22:43:22.634Z,1.50
2023-07-06T22:45:49.321Z,1.25
2023-07-06T22:48:19.339Z,1.70
2023-07-06T22:50:45.993Z,1.45
2023-07-06T22:53:13.127Z,1.40
2023-07-06T22:55:39.820Z,1.20
2023-07-06T22:58:07.490Z,1.70
2023-07-06T23:00:37.772Z,2.13
2023-07-06T23:03:04.842Z,1.63
2023-07-06T23:05:31.456Z,1.52
2023-07-06T23:07:58.215Z,1.43
2023-07-06T23:10:30.714Z,1.48
2023-07-06T23:12:57.963Z,1.45
2023-07-06T23:15:27.038Z,1.25
2023-07-06T23:17:53.802Z,1.50
2023-07-06T23:20:21.754Z,1.37
2023-07-06T23:22:48.697Z,1.42
2023-07-06T23:25:17.616Z,1.52
2023-07-06T23:27:46.340Z,1.70
2023-07-06T23:30:19.188Z,1.50
2023-07-06T23:32:49.718Z,1.50
2023-07-06T23:35:21.106Z,1.55
2023-07-06T23:37:50.134Z,1.35
2023-07-06T23:40:22.428Z,1.60
2023-07-06T23:42:49.482Z,1.60
2023-07-06T23:45:16.432Z,1.63
2023-07-06T23:47:43.005Z,1.80
2023-07-06T23:50:10.797Z,1.73
2023-07-06T23:52:37.537Z,2.03
2023-07-06T23:55:04.333Z,1.63
2023-07-06T23:57:30.905Z,1.60
2023-07-06T23:59:57.540Z,2.20
